createdAt,value
2019-06-10T00:00:21.822Z,65.52
2019-06-10T00:01:21.332Z,65.32
2019-06-10T00:02:21.363Z,65.12
2019-06-10T00:03:20.767Z,65.09
2019-06-10T00:04:22.151Z,66.13
2019-06-10T00:05:21.608Z,65.12
2019-06-10T00:06:21.061Z,65.49
2019-06-10T00:07:21.086Z,65.19
2019-06-10T00:08:21.001Z,65.49
2019-06-10T00:09:21.222Z,65.29
2019-06-10T00:10:21.473Z,65.49
2019-06-10T00:11:21.320Z,65.29
2019-06-10T00:12:21.069Z,65.49
2019-06-10T00:13:21.018Z,65.19
2019-06-10T00:14:21.253Z,65.49
2019-06-10T00:15:21.360Z,65.09
2019-06-10T00:16:20.954Z,65.29
2019-06-10T00:17:21.368Z,65.29
2019-06-10T00:18:35.536Z,65.09
2019-06-10T00:19:21.886Z,64.69
2019-06-10T00:20:21.591Z,65.09
2019-06-10T00:21:21.761Z,65.29
2019-06-10T00:22:21.561Z,65.32
2019-06-10T00:23:21.288Z,65.32
2019-06-10T00:24:21.151Z,65.39
2019-06-10T00:25:20.984Z,64.61
2019-06-10T00:26:21.608Z,65.62
2019-06-10T00:27:21.601Z,65.52
2019-06-10T00:28:21.750Z,65.52
2019-06-10T00:29:22.197Z,65.52
2019-06-10T00:30:20.821Z,65.12
2019-06-10T00:31:20.760Z,65.22
2019-06-10T00:32:21.499Z,65.22
2019-06-10T00:33:21.608Z,65.82
2019-06-10T00:34:20.916Z,64.41
2019-06-10T00:35:21.077Z,64.61
2019-06-10T00:36:21.544Z,64.38
2019-06-10T00:37:21.177Z,65.12
2019-06-10T00:38:21.422Z,65.32
2019-06-10T00:39:22.165Z,65.12
2019-06-10T00:40:21.440Z,65.42
2019-06-10T00:41:21.973Z,65.32
2019-06-10T00:42:21.337Z,65.42
2019-06-10T00:43:21.372Z,65.62
2019-06-10T00:44:20.667Z,65.52
2019-06-10T00:45:21.651Z,65.52
2019-06-10T00:46:21.204Z,65.01
2019-06-10T00:47:21.168Z,65.12
2019-06-10T00:48:26.171Z,64.81
2019-06-10T00:49:21.444Z,65.32
2019-06-10T00:50:21.715Z,65.42
2019-06-10T00:51:20.967Z,65.62
2019-06-10T00:52:21.333Z,65.52
2019-06-10T00:53:21.093Z,65.52
2019-06-10T00:54:21.862Z,64.92
2019-06-10T00:55:21.156Z,66.02
2019-06-10T00:56:21.541Z,65.01
2019-06-10T00:57:20.941Z,65.62
2019-06-10T00:58:21.611Z,65.01
2019-06-10T00:59:22.016Z,65.25
2019-06-10T01:00:25.534Z,65.55
2019-06-10T01:01:21.985Z,65.95
2019-06-10T01:02:21.402Z,65.25
2019-06-10T01:03:20.960Z,65.85
2019-06-10T01:04:21.663Z,65.05
2019-06-10T01:05:20.765Z,65.95
2019-06-10T01:06:21.374Z,65.15
2019-06-10T01:07:21.849Z,65.95
2019-06-10T01:08:21.469Z,65.95
2019-06-10T01:09:21.857Z,66.25
2019-06-10T01:10:21.046Z,65.65
2019-06-10T01:11:26.437Z,65.68
2019-06-10T01:12:21.171Z,66.19
2019-06-10T01:13:20.780Z,65.99
2019-06-10T01:14:21.571Z,65.99
2019-06-10T01:15:21.856Z,66.19
2019-06-10T01:16:21.646Z,66.59
2019-06-10T01:17:21.351Z,66.59
2019-06-10T01:18:34.643Z,66.19
2019-06-10T01:19:21.853Z,66.19
2019-06-10T01:20:21.076Z,66.19
2019-06-10T01:21:21.861Z,66.99
2019-06-10T01:22:21.313Z,66.49
2019-06-10T01:23:21.866Z,66.69
2019-06-10T01:24:22.101Z,66.79
2019-06-10T01:25:21.652Z,66.29
2019-06-10T01:26:21.570Z,66.82
2019-06-10T01:27:21.203Z,66.82
2019-06-10T01:28:22.083Z,66.52
2019-06-10T01:29:20.976Z,66.42
2019-06-10T01:30:24.540Z,66.62
2019-06-10T01:31:24.117Z,66.82
2019-06-10T01:32:21.701Z,66.52
2019-06-10T01:33:21.212Z,66.22
2019-06-10T01:34:21.813Z,66.75
2019-06-10T01:35:21.073Z,66.86
2019-06-10T01:36:21.106Z,66.65
2019-06-10T01:37:21.866Z,66.75
2019-06-10T01:38:21.091Z,66.62
2019-06-10T01:39:19.593Z,66.86
2019-06-10T01:40:20.903Z,66.86
2019-06-10T01:41:21.465Z,66.65
2019-06-10T01:42:21.461Z,67.16
2019-06-10T01:43:21.446Z,66.96
2019-06-10T01:44:21.877Z,66.65
2019-06-10T01:45:21.254Z,67.26
2019-06-10T01:46:21.177Z,67.36
2019-06-10T01:47:21.425Z,66.99
2019-06-10T01:48:20.945Z,68.00
2019-06-10T01:49:21.342Z,67.60
2019-06-10T01:50:21.632Z,66.78
2019-06-10T01:51:21.338Z,67.39
2019-06-10T01:52:21.197Z,66.99
2019-06-10T01:53:21.438Z,67.39
2019-06-10T01:54:21.343Z,67.69
2019-06-10T01:55:21.634Z,68.00
2019-06-10T01:56:21.456Z,67.80
2019-06-10T01:57:21.249Z,68.10
2019-06-10T01:58:23.299Z,67.80
2019-06-10T01:59:22.066Z,67.80
2019-06-10T02:00:25.104Z,67.69
2019-06-10T02:01:23.310Z,67.80
2019-06-10T02:02:21.142Z,67.90
2019-06-10T02:03:23.686Z,67.29
2019-06-10T02:04:22.090Z,67.69
2019-06-10T02:05:20.263Z,67.09
2019-06-10T02:06:22.110Z,67.86
2019-06-10T02:07:22.917Z,67.29
2019-06-10T02:08:21.968Z,67.49
2019-06-10T02:09:22.820Z,67.19
2019-06-10T02:10:22.371Z,67.90
2019-06-10T02:11:23.510Z,67.69
2019-06-10T02:12:23.695Z,68.00
2019-06-10T02:13:21.658Z,68.33
2019-06-10T02:14:23.194Z,68.03
2019-06-10T02:15:22.490Z,68.20
2019-06-10T02:16:20.996Z,68.33
2019-06-10T02:17:23.531Z,68.43
2019-06-10T02:18:22.377Z,68.13
2019-06-10T02:19:22.742Z,67.69
2019-06-10T02:20:22.567Z,67.72
2019-06-10T02:21:22.576Z,68.03
2019-06-10T02:22:23.919Z,67.69
2019-06-10T02:23:21.907Z,68.10
2019-06-10T02:24:19.724Z,67.72
2019-06-10T02:25:21.380Z,68.00
2019-06-10T02:26:19.886Z,67.29
2019-06-10T02:27:21.484Z,67.19
2019-06-10T02:28:19.734Z,67.22
2019-06-10T02:29:21.759Z,67.83
2019-06-10T02:30:36.466Z,67.60
2019-06-10T02:31:30.459Z,67.83
2019-06-10T02:32:30.731Z,67.39
2019-06-10T02:33:27.868Z,67.93
2019-06-10T02:34:26.435Z,67.39
2019-06-10T02:35:30.639Z,66.89
2019-06-10T02:36:27.809Z,66.99
2019-06-10T02:37:22.479Z,66.89
2019-06-10T02:38:28.079Z,66.58
2019-06-10T02:39:26.378Z,66.92
2019-06-10T02:40:28.239Z,66.89
2019-06-10T02:41:26.186Z,66.99
2019-06-10T02:42:22.304Z,66.78
2019-06-10T02:43:23.932Z,66.99
2019-06-10T02:44:26.428Z,67.29
2019-06-10T02:45:30.715Z,66.89
2019-06-10T02:46:24.538Z,66.08
2019-06-10T02:47:23.871Z,66.28
2019-06-10T02:48:23.718Z,66.18
2019-06-10T02:49:35.132Z,66.18
2019-06-10T02:50:25.868Z,66.28
2019-06-10T02:51:22.187Z,66.38
2019-06-10T02:52:23.296Z,66.61
2019-06-10T02:53:21.079Z,66.21
2019-06-10T02:54:20.805Z,66.38
2019-06-10T02:55:22.857Z,66.61
2019-06-10T02:56:21.748Z,66.41
2019-06-10T02:57:24.660Z,66.31
2019-06-10T02:58:24.200Z,66.21
2019-06-10T02:59:21.570Z,66.31
2019-06-10T03:00:26.778Z,66.52
2019-06-10T03:01:21.706Z,66.58
2019-06-10T03:02:20.779Z,66.92
2019-06-10T03:03:25.918Z,66.72
2019-06-10T03:04:22.178Z,66.48
2019-06-10T03:05:24.897Z,65.98
2019-06-10T03:06:23.507Z,66.58
2019-06-10T03:07:21.139Z,66.18
2019-06-10T03:08:20.552Z,66.78
2019-06-10T03:09:20.472Z,65.37
2019-06-10T03:10:21.118Z,65.67
2019-06-10T03:11:20.708Z,65.88
2019-06-10T03:12:19.703Z,66.69
2019-06-10T03:13:19.685Z,66.41
2019-06-10T03:14:19.679Z,65.81
2019-06-10T03:15:19.853Z,66.11
2019-06-10T03:16:19.841Z,66.72
2019-06-10T03:17:18.469Z,67.22
2019-06-10T03:18:18.458Z,66.58
2019-06-10T03:19:37.074Z,66.18
2019-06-10T03:20:20.001Z,65.37
2019-06-10T03:21:18.456Z,65.47
2019-06-10T03:22:18.411Z,65.67
2019-06-10T03:23:18.401Z,65.88
2019-06-10T03:24:19.152Z,65.98
2019-06-10T03:25:18.397Z,66.28
2019-06-10T03:26:19.251Z,66.41
2019-06-10T03:27:18.424Z,66.61
2019-06-10T03:28:19.423Z,66.21
2019-06-10T03:29:18.571Z,65.61
2019-06-10T03:30:26.821Z,65.30
2019-06-10T03:31:22.081Z,65.20
2019-06-10T03:32:22.101Z,65.40
2019-06-10T03:33:20.830Z,65.70
2019-06-10T03:34:21.888Z,66.28
2019-06-10T03:35:19.376Z,66.48
2019-06-10T03:36:18.288Z,66.48
2019-06-10T03:37:18.358Z,66.89
2019-06-10T03:38:18.286Z,65.47
2019-06-10T03:39:18.649Z,66.48
2019-06-10T03:40:18.548Z,67.49
2019-06-10T03:41:18.585Z,66.28
2019-06-10T03:42:18.804Z,65.37
2019-06-10T03:43:18.752Z,65.27
2019-06-10T03:44:18.920Z,65.07
2019-06-10T03:45:19.204Z,65.37
2019-06-10T03:46:19.052Z,65.37
2019-06-10T03:47:19.107Z,65.27
2019-06-10T03:48:19.082Z,65.37
2019-06-10T03:49:19.134Z,65.37
2019-06-10T03:50:19.232Z,65.27
2019-06-10T03:51:19.204Z,65.78
2019-06-10T03:52:19.290Z,66.08
2019-06-10T03:53:19.109Z,66.89
2019-06-10T03:54:19.193Z,67.19
2019-06-10T03:55:19.224Z,65.17
2019-06-10T03:56:19.089Z,65.27
2019-06-10T03:57:19.143Z,65.27
2019-06-10T03:58:19.874Z,65.27
2019-06-10T03:59:19.159Z,65.47
2019-06-10T04:00:19.405Z,65.47
2019-06-10T04:01:19.362Z,65.57
2019-06-10T04:02:19.318Z,65.67
2019-06-10T04:03:17.953Z,64.97
2019-06-10T04:04:17.942Z,64.56
2019-06-10T04:05:17.930Z,64.79
2019-06-10T04:06:17.920Z,65.47
2019-06-10T04:07:18.099Z,65.27
2019-06-10T04:08:17.897Z,65.57
2019-06-10T04:09:17.900Z,66.58
2019-06-10T04:10:17.876Z,65.27
2019-06-10T04:11:17.864Z,65.17
2019-06-10T04:12:17.884Z,65.37
2019-06-10T04:13:17.841Z,65.27
2019-06-10T04:14:17.830Z,65.47
2019-06-10T04:15:17.819Z,65.78
2019-06-10T04:16:17.817Z,65.78
2019-06-10T04:17:17.829Z,65.57
2019-06-10T04:18:17.957Z,65.47
2019-06-10T04:19:17.776Z,65.27
2019-06-10T04:20:17.850Z,65.57
2019-06-10T04:21:17.764Z,65.67
2019-06-10T04:22:17.744Z,65.57
2019-06-10T04:23:17.764Z,65.67
2019-06-10T04:24:17.722Z,65.50
2019-06-10T04:25:17.851Z,65.78
2019-06-10T04:26:17.841Z,65.78
2019-06-10T04:27:17.738Z,64.67
2019-06-10T04:28:17.809Z,65.27
2019-06-10T04:29:17.920Z,65.07
2019-06-10T04:30:18.242Z,64.90
2019-06-10T04:31:18.194Z,65.07
2019-06-10T04:32:18.215Z,65.07
2019-06-10T04:33:18.366Z,65.17
2019-06-10T04:34:18.342Z,64.87
2019-06-10T04:35:18.348Z,65.07
2019-06-10T04:36:18.329Z,65.17
2019-06-10T04:37:18.375Z,65.27
2019-06-10T04:38:18.338Z,64.67
2019-06-10T04:39:18.458Z,64.97
2019-06-10T04:40:18.418Z,64.76
2019-06-10T04:41:18.343Z,64.46
2019-06-10T04:42:18.343Z,64.67
2019-06-10T04:43:18.409Z,64.67
2019-06-10T04:44:18.552Z,65.37
2019-06-10T04:45:18.690Z,64.87
2019-06-10T04:46:18.588Z,64.87
2019-06-10T04:47:18.523Z,64.76
2019-06-10T04:48:18.526Z,64.46
2019-06-10T04:49:18.686Z,64.87
2019-06-10T04:50:25.039Z,64.46
2019-06-10T04:51:18.695Z,64.87
2019-06-10T04:52:18.460Z,64.56
2019-06-10T04:53:18.596Z,64.76
2019-06-10T04:54:18.471Z,64.87
2019-06-10T04:55:18.716Z,64.87
2019-06-10T04:56:17.365Z,64.97
2019-06-10T04:57:17.351Z,64.67
2019-06-10T04:58:17.374Z,64.67
2019-06-10T04:59:17.335Z,64.94
2019-06-10T05:00:17.323Z,63.82
2019-06-10T05:01:17.311Z,63.42
2019-06-10T05:02:17.297Z,63.35
2019-06-10T05:03:17.316Z,63.62
2019-06-10T05:04:17.274Z,64.03
2019-06-10T05:05:17.262Z,63.32
2019-06-10T05:06:17.250Z,63.22
2019-06-10T05:07:17.240Z,64.53
2019-06-10T05:08:17.261Z,64.43
2019-06-10T05:09:17.218Z,64.33
2019-06-10T05:10:17.206Z,64.03
2019-06-10T05:11:17.196Z,64.03
2019-06-10T05:12:17.186Z,63.22
2019-06-10T05:13:17.175Z,63.52
2019-06-10T05:14:17.197Z,63.52
2019-06-10T05:15:17.150Z,63.73
2019-06-10T05:16:17.143Z,63.59
2019-06-10T05:17:17.130Z,63.22
2019-06-10T05:18:17.148Z,64.30
2019-06-10T05:19:17.106Z,64.40
2019-06-10T05:20:17.095Z,64.40
2019-06-10T05:21:17.084Z,64.40
2019-06-10T05:22:17.075Z,64.30
2019-06-10T05:23:17.063Z,64.81
2019-06-10T05:24:17.082Z,65.18
2019-06-10T05:25:17.040Z,64.61
2019-06-10T05:26:17.031Z,64.67
2019-06-10T05:27:17.019Z,64.78
2019-06-10T05:28:17.006Z,65.28
2019-06-10T05:29:17.031Z,64.87
2019-06-10T05:30:16.988Z,65.08
2019-06-10T05:31:16.978Z,65.05
2019-06-10T05:32:16.962Z,64.47
2019-06-10T05:33:16.954Z,64.17
2019-06-10T05:34:16.971Z,63.26
2019-06-10T05:35:16.935Z,63.23
2019-06-10T05:36:16.917Z,63.56
2019-06-10T05:37:16.908Z,63.33
2019-06-10T05:38:16.896Z,63.16
2019-06-10T05:39:16.917Z,63.06
2019-06-10T05:40:16.872Z,62.96
2019-06-10T05:41:16.861Z,63.33
2019-06-10T05:42:16.851Z,63.26
2019-06-10T05:43:16.841Z,64.17
2019-06-10T05:44:16.865Z,64.14
2019-06-10T05:45:16.818Z,64.14
2019-06-10T05:46:16.806Z,63.33
2019-06-10T05:47:16.797Z,62.63
2019-06-10T05:48:16.962Z,62.83
2019-06-10T05:49:16.805Z,63.33
2019-06-10T05:50:16.762Z,63.23
2019-06-10T05:51:16.751Z,63.30
2019-06-10T05:52:16.740Z,63.10
2019-06-10T05:53:16.731Z,63.64
2019-06-10T05:54:16.748Z,63.40
2019-06-10T05:55:16.706Z,63.30
2019-06-10T05:56:16.696Z,63.10
2019-06-10T05:57:16.688Z,63.30
2019-06-10T05:58:16.681Z,63.50
2019-06-10T05:59:16.666Z,63.50
2019-06-10T06:00:16.683Z,64.11
2019-06-10T06:01:16.640Z,64.81
2019-06-10T06:02:16.630Z,63.60
2019-06-10T06:03:16.616Z,63.67
2019-06-10T06:04:16.607Z,64.21
2019-06-10T06:05:16.627Z,64.72
2019-06-10T06:06:16.584Z,64.69
2019-06-10T06:07:16.573Z,63.67
2019-06-10T06:08:16.561Z,63.50
2019-06-10T06:09:16.552Z,64.28
2019-06-10T06:10:16.571Z,64.48
2019-06-10T06:11:16.532Z,63.57
2019-06-10T06:12:16.516Z,64.38
2019-06-10T06:13:16.506Z,64.07
2019-06-10T06:14:16.494Z,64.28
2019-06-10T06:15:16.517Z,64.07
2019-06-10T06:16:16.472Z,64.07
2019-06-10T06:17:16.841Z,63.17
2019-06-10T06:18:16.450Z,63.17
2019-06-10T06:19:16.448Z,63.17
2019-06-10T06:20:16.460Z,63.07
2019-06-10T06:21:25.499Z,63.27
2019-06-10T06:22:17.405Z,62.46
2019-06-10T06:23:16.403Z,63.37
2019-06-10T06:24:16.405Z,63.27
2019-06-10T06:25:16.423Z,62.46
2019-06-10T06:26:16.831Z,62.77
2019-06-10T06:27:16.350Z,62.46
2019-06-10T06:28:16.393Z,62.16
2019-06-10T06:29:16.326Z,62.16
2019-06-10T06:30:18.917Z,62.87
2019-06-10T06:31:16.305Z,62.97
2019-06-10T06:32:16.296Z,63.37
2019-06-10T06:33:16.283Z,63.34
2019-06-10T06:34:16.279Z,61.46
2019-06-10T06:35:16.294Z,62.26
2019-06-10T06:36:16.251Z,62.37
2019-06-10T06:37:16.240Z,62.54
2019-06-10T06:38:16.229Z,62.66
2019-06-10T06:39:16.220Z,63.04
2019-06-10T06:40:16.236Z,63.24
2019-06-10T06:41:16.198Z,62.94
2019-06-10T06:42:16.184Z,63.11
2019-06-10T06:43:16.172Z,63.45
2019-06-10T06:44:16.162Z,63.42
2019-06-10T06:45:16.179Z,63.01
2019-06-10T06:46:16.140Z,63.42
2019-06-10T06:47:16.128Z,62.01
2019-06-10T06:48:16.115Z,62.01
2019-06-10T06:49:16.104Z,62.51
2019-06-10T06:50:16.097Z,63.21
2019-06-10T06:51:16.113Z,63.42
2019-06-10T06:52:16.072Z,63.28
2019-06-10T06:53:24.585Z,63.42
2019-06-10T06:54:17.053Z,63.08
2019-06-10T06:55:16.038Z,62.81
2019-06-10T06:56:16.067Z,62.41
2019-06-10T06:57:16.015Z,62.21
2019-06-10T06:58:16.005Z,61.98
2019-06-10T06:59:16.001Z,62.51
2019-06-10T07:00:38.287Z,61.70
2019-06-10T07:01:17.000Z,62.30
2019-06-10T07:02:15.961Z,62.51
2019-06-10T07:03:15.949Z,63.28
2019-06-10T07:04:15.939Z,62.88
2019-06-10T07:05:15.925Z,62.48
2019-06-10T07:06:15.948Z,62.48
2019-06-10T07:07:15.907Z,62.41
2019-06-10T07:08:15.893Z,63.39
2019-06-10T07:09:15.883Z,62.98
2019-06-10T07:10:15.872Z,62.18
2019-06-10T07:11:15.891Z,62.21
2019-06-10T07:12:15.852Z,62.38
2019-06-10T07:13:15.838Z,62.58
2019-06-10T07:14:15.828Z,62.38
2019-06-10T07:15:15.816Z,63.18
2019-06-10T07:16:15.834Z,63.28
2019-06-10T07:17:15.793Z,63.48
2019-06-10T07:18:15.781Z,63.28
2019-06-10T07:19:15.770Z,63.39
2019-06-10T07:20:15.761Z,62.38
2019-06-10T07:21:15.783Z,62.48
2019-06-10T07:22:16.310Z,62.98
2019-06-10T07:23:15.728Z,63.08
2019-06-10T07:24:15.716Z,63.08
2019-06-10T07:25:15.707Z,62.88
2019-06-10T07:26:15.730Z,62.48
2019-06-10T07:27:15.682Z,62.58
2019-06-10T07:28:15.672Z,62.07
2019-06-10T07:29:15.661Z,62.98
2019-06-10T07:30:15.649Z,62.98
2019-06-10T07:31:23.308Z,63.35
2019-06-10T07:32:16.624Z,63.85
2019-06-10T07:33:15.614Z,63.05
2019-06-10T07:34:15.604Z,62.95
2019-06-10T07:35:15.592Z,62.75
2019-06-10T07:36:15.583Z,62.32
2019-06-10T07:37:15.601Z,61.71
2019-06-10T07:38:15.562Z,62.32
2019-06-10T07:39:15.548Z,61.69
2019-06-10T07:40:15.566Z,61.49
2019-06-10T07:41:15.529Z,61.18
2019-06-10T07:42:15.548Z,61.29
2019-06-10T07:43:15.515Z,60.98
2019-06-10T07:44:15.493Z,61.38
2019-06-10T07:45:15.482Z,61.49
2019-06-10T07:46:15.469Z,60.58
2019-06-10T07:47:15.491Z,60.58
2019-06-10T07:48:15.449Z,60.88
2019-06-10T07:49:15.435Z,60.58
2019-06-10T07:50:15.427Z,60.68
2019-06-10T07:51:15.418Z,60.85
2019-06-10T07:52:19.847Z,61.05
2019-06-10T07:53:15.397Z,60.96
2019-06-10T07:54:15.383Z,61.35
2019-06-10T07:55:15.368Z,61.25
2019-06-10T07:56:15.359Z,62.06
2019-06-10T07:57:15.382Z,61.35
2019-06-10T07:58:15.339Z,62.46
2019-06-10T07:59:15.325Z,62.33
2019-06-10T08:00:15.314Z,63.33
2019-06-10T08:01:15.303Z,63.03
2019-06-10T08:02:15.322Z,62.23
2019-06-10T08:03:15.280Z,62.43
2019-06-10T08:04:15.271Z,62.23
2019-06-10T08:05:15.287Z,61.43
2019-06-10T08:06:15.276Z,61.52
2019-06-10T08:07:15.266Z,61.83
2019-06-10T08:08:15.225Z,62.30
2019-06-10T08:09:15.217Z,62.70
2019-06-10T08:10:15.203Z,62.80
2019-06-10T08:11:15.191Z,62.80
2019-06-10T08:12:15.299Z,62.50
2019-06-10T08:13:15.168Z,62.40
2019-06-10T08:14:15.159Z,62.47
2019-06-10T08:15:15.147Z,62.20
2019-06-10T08:16:15.138Z,61.97
2019-06-10T08:17:15.162Z,61.77
2019-06-10T08:18:15.116Z,62.07
2019-06-10T08:19:30.048Z,62.24
2019-06-10T08:20:16.093Z,60.66
2019-06-10T08:21:15.082Z,60.97
2019-06-10T08:22:29.882Z,60.77
2019-06-10T08:23:16.058Z,61.24
2019-06-10T08:24:15.048Z,61.94
2019-06-10T08:25:15.038Z,61.94
2019-06-10T08:26:15.029Z,61.34
2019-06-10T08:27:15.016Z,60.14
2019-06-10T08:28:15.035Z,59.33
2019-06-10T08:29:14.994Z,60.11
2019-06-10T08:30:22.525Z,60.24
2019-06-10T08:31:15.971Z,60.51
2019-06-10T08:32:14.963Z,60.51
2019-06-10T08:33:14.981Z,60.61
2019-06-10T08:34:14.938Z,60.41
2019-06-10T08:35:14.927Z,60.01
2019-06-10T08:36:14.916Z,60.41
2019-06-10T08:37:14.915Z,59.78
2019-06-10T08:38:14.929Z,61.31
2019-06-10T08:39:15.950Z,60.48
2019-06-10T08:40:14.874Z,59.38
2019-06-10T08:41:14.861Z,59.38
2019-06-10T08:42:14.849Z,60.18
2019-06-10T08:43:14.871Z,60.48
2019-06-10T08:44:14.829Z,58.78
2019-06-10T08:45:14.815Z,59.28
2019-06-10T08:46:14.806Z,59.48
2019-06-10T08:47:14.797Z,60.18
2019-06-10T08:48:14.816Z,60.18
2019-06-10T08:49:14.771Z,60.68
2019-06-10T08:50:14.760Z,60.38
2019-06-10T08:51:14.750Z,61.15
2019-06-10T08:52:14.743Z,61.05
2019-06-10T08:53:18.133Z,59.15
2019-06-10T08:54:14.716Z,59.45
2019-06-10T08:55:14.708Z,59.15
2019-06-10T08:56:14.694Z,59.52
2019-06-10T08:57:14.688Z,60.12
2019-06-10T08:58:14.704Z,60.62
2019-06-10T08:59:14.661Z,60.10
2019-06-10T09:00:16.252Z,60.10
2019-06-10T09:01:14.645Z,60.39
2019-06-10T09:02:14.629Z,59.59
2019-06-10T09:03:14.649Z,58.99
2019-06-10T09:04:14.622Z,58.09
2019-06-10T09:05:14.595Z,58.39
2019-06-10T09:06:14.583Z,59.27
2019-06-10T09:07:14.572Z,59.89
2019-06-10T09:08:14.591Z,59.59
2019-06-10T09:09:14.550Z,58.19
2019-06-10T09:10:14.538Z,58.76
2019-06-10T09:11:14.528Z,58.76
2019-06-10T09:12:28.704Z,58.80
2019-06-10T09:13:15.506Z,58.67
2019-06-10T09:14:14.526Z,60.46
2019-06-10T09:15:14.486Z,59.66
2019-06-10T09:16:19.201Z,59.47
2019-06-10T09:17:15.460Z,58.47
2019-06-10T09:18:19.688Z,58.54
2019-06-10T09:19:15.470Z,58.54
2019-06-10T09:20:14.428Z,57.44
2019-06-10T09:21:14.417Z,58.44
2019-06-10T09:22:14.406Z,58.64
2019-06-10T09:23:21.927Z,58.34
2019-06-10T09:24:15.415Z,58.34
2019-06-10T09:25:14.371Z,58.14
2019-06-10T09:26:14.363Z,58.04
2019-06-10T09:27:14.355Z,58.34
2019-06-10T09:28:14.339Z,58.24
2019-06-10T09:29:14.377Z,58.41
2019-06-10T09:30:14.319Z,59.53
2019-06-10T09:31:14.344Z,58.81
2019-06-10T09:32:14.327Z,58.61
2019-06-10T09:33:14.284Z,58.41
2019-06-10T09:34:14.305Z,58.11
2019-06-10T09:35:14.263Z,58.71
2019-06-10T09:36:14.256Z,58.71
2019-06-10T09:37:14.258Z,58.11
2019-06-10T09:38:14.289Z,58.21
2019-06-10T09:39:14.251Z,58.41
2019-06-10T09:40:14.207Z,57.78
2019-06-10T09:41:14.384Z,57.78
2019-06-10T09:42:14.654Z,57.78
2019-06-10T09:43:14.178Z,57.39
2019-06-10T09:44:14.195Z,57.18
2019-06-10T09:45:14.154Z,57.56
2019-06-10T09:46:14.145Z,57.86
2019-06-10T09:47:14.642Z,57.95
2019-06-10T09:48:14.120Z,57.95
2019-06-10T09:49:14.141Z,57.15
2019-06-10T09:50:14.106Z,55.96
2019-06-10T09:51:14.086Z,56.73
2019-06-10T09:52:14.075Z,56.23
2019-06-10T09:53:29.035Z,56.93
2019-06-10T09:54:15.084Z,56.53
2019-06-10T09:55:14.043Z,55.31
2019-06-10T09:56:14.033Z,56.01
2019-06-10T09:57:14.020Z,54.81
2019-06-10T09:58:14.011Z,55.68
2019-06-10T09:59:14.034Z,54.79
2019-06-10T10:00:13.986Z,54.79
2019-06-10T10:01:13.976Z,55.78
2019-06-10T10:02:13.968Z,54.79
2019-06-10T10:03:13.954Z,54.26
2019-06-10T10:04:13.975Z,54.75
2019-06-10T10:05:13.932Z,55.26
2019-06-10T10:06:15.604Z,55.35
2019-06-10T10:07:13.909Z,54.63
2019-06-10T10:08:13.899Z,54.43
2019-06-10T10:09:13.893Z,54.43
2019-06-10T10:10:13.909Z,53.21
2019-06-10T10:11:13.898Z,53.51
2019-06-10T10:12:13.855Z,53.58
2019-06-10T10:13:13.859Z,52.89
2019-06-10T10:14:15.905Z,52.79
2019-06-10T10:15:26.419Z,52.26
2019-06-10T10:16:14.812Z,52.37
2019-06-10T10:17:13.801Z,52.26
2019-06-10T10:18:14.042Z,51.97
2019-06-10T10:19:13.808Z,51.17
2019-06-10T10:20:14.149Z,51.67
2019-06-10T10:21:13.757Z,52.07
2019-06-10T10:22:14.099Z,50.95
2019-06-10T10:23:13.839Z,50.35
2019-06-10T10:24:15.128Z,51.25
2019-06-10T10:25:14.481Z,51.72
2019-06-10T10:26:14.219Z,49.24
2019-06-10T10:27:13.694Z,50.43
2019-06-10T10:28:13.680Z,50.03
2019-06-10T10:29:13.690Z,50.60
2019-06-10T10:30:13.691Z,50.83
2019-06-10T10:31:13.645Z,50.51
2019-06-10T10:32:13.638Z,50.31
2019-06-10T10:33:13.626Z,50.31
2019-06-10T10:34:13.706Z,49.61
2019-06-10T10:35:13.635Z,48.44
2019-06-10T10:36:14.272Z,49.84
2019-06-10T10:37:13.581Z,49.51
2019-06-10T10:38:14.445Z,50.31
2019-06-10T10:39:14.067Z,48.69
2019-06-10T10:40:13.582Z,49.19
2019-06-10T10:41:13.702Z,49.76
2019-06-10T10:42:13.528Z,47.98
2019-06-10T10:43:25.283Z,48.08
2019-06-10T10:44:14.820Z,47.96
2019-06-10T10:45:13.945Z,47.46
2019-06-10T10:46:14.154Z,47.75
2019-06-10T10:47:13.475Z,48.25
2019-06-10T10:48:14.072Z,47.34
2019-06-10T10:49:14.262Z,47.63
2019-06-10T10:50:14.067Z,46.55
2019-06-10T10:51:13.492Z,46.05
2019-06-10T10:52:13.463Z,46.35
2019-06-10T10:53:13.409Z,46.05
2019-06-10T10:54:27.906Z,45.75
2019-06-10T10:55:14.384Z,45.95
2019-06-10T10:56:13.408Z,45.65
2019-06-10T10:57:13.365Z,46.45
2019-06-10T10:58:13.355Z,47.06
2019-06-10T10:59:13.484Z,47.36
2019-06-10T11:00:13.331Z,46.97
2019-06-10T11:01:14.993Z,47.96
2019-06-10T11:02:13.307Z,47.66
2019-06-10T11:03:13.490Z,47.09
2019-06-10T11:04:13.518Z,47.78
2019-06-10T11:05:13.275Z,47.78
2019-06-10T11:06:13.351Z,47.88
2019-06-10T11:07:13.254Z,48.27
2019-06-10T11:08:14.340Z,47.78
2019-06-10T11:09:13.282Z,47.78
2019-06-10T11:10:13.220Z,47.78
2019-06-10T11:11:13.697Z,48.15
2019-06-10T11:12:13.199Z,47.16
2019-06-10T11:13:13.189Z,47.96
2019-06-10T11:14:15.057Z,47.26
2019-06-10T11:15:13.780Z,47.06
2019-06-10T11:16:13.514Z,48.05
2019-06-10T11:17:13.172Z,48.35
2019-06-10T11:18:13.132Z,47.75
2019-06-10T11:19:13.150Z,47.96
2019-06-10T11:20:13.713Z,46.97
2019-06-10T11:21:13.497Z,46.67
2019-06-10T11:22:13.119Z,46.27
2019-06-10T11:23:13.075Z,46.39
2019-06-10T11:24:15.852Z,46.79
2019-06-10T11:25:14.051Z,47.88
2019-06-10T11:26:13.283Z,48.15
2019-06-10T11:27:13.062Z,48.55
2019-06-10T11:28:13.020Z,47.75
2019-06-10T11:29:13.007Z,47.26
2019-06-10T11:30:12.996Z,47.49
2019-06-10T11:31:13.766Z,47.88
2019-06-10T11:32:13.004Z,48.38
2019-06-10T11:33:12.963Z,47.78
2019-06-10T11:34:12.951Z,47.98
2019-06-10T11:35:12.941Z,46.98
2019-06-10T11:36:13.631Z,47.90
2019-06-10T11:37:12.953Z,47.71
2019-06-10T11:38:12.972Z,47.80
2019-06-10T11:39:13.444Z,47.88
2019-06-10T11:40:13.620Z,47.80
2019-06-10T11:41:13.750Z,47.90
2019-06-10T11:42:13.273Z,47.31
2019-06-10T11:43:13.178Z,47.80
2019-06-10T11:44:12.847Z,48.13
2019-06-10T11:45:12.829Z,48.22
2019-06-10T11:46:13.827Z,49.21
2019-06-10T11:47:13.241Z,48.72
2019-06-10T11:48:13.033Z,49.44
2019-06-10T11:49:12.789Z,50.01
2019-06-10T11:50:12.775Z,49.24
2019-06-10T11:51:13.258Z,48.65
2019-06-10T11:52:12.785Z,48.05
2019-06-10T11:53:12.926Z,48.94
2019-06-10T11:54:13.016Z,50.63
2019-06-10T11:55:18.406Z,49.14
2019-06-10T11:56:14.133Z,50.73
2019-06-10T11:57:13.235Z,50.63
2019-06-10T11:58:12.690Z,50.16
2019-06-10T11:59:13.377Z,51.05
2019-06-10T12:00:14.792Z,50.85
2019-06-10T12:01:13.400Z,51.15
2019-06-10T12:02:13.343Z,50.65
2019-06-10T12:03:13.127Z,49.98
2019-06-10T12:04:13.026Z,51.05
2019-06-10T12:05:13.136Z,51.17
2019-06-10T12:06:13.588Z,51.17
2019-06-10T12:07:12.976Z,50.58
2019-06-10T12:08:13.207Z,51.07
2019-06-10T12:09:13.712Z,51.57
2019-06-10T12:10:12.959Z,51.28
2019-06-10T12:11:12.985Z,50.28
2019-06-10T12:12:13.506Z,50.88
2019-06-10T12:13:13.391Z,50.48
2019-06-10T12:14:12.999Z,49.78
2019-06-10T12:15:12.510Z,50.58
2019-06-10T12:17:24.790Z,50.88
2019-06-10T12:18:13.487Z,50.98
2019-06-10T12:19:12.881Z,50.50
2019-06-10T12:20:13.344Z,50.50
2019-06-10T12:21:13.376Z,50.60
2019-06-10T12:22:13.423Z,50.43
2019-06-10T12:23:12.807Z,50.63
2019-06-10T12:24:12.837Z,50.63
2019-06-10T12:25:35.528Z,51.82
2019-06-10T12:26:13.388Z,52.12
2019-06-10T12:27:13.104Z,52.34
2019-06-10T12:28:12.955Z,52.22
2019-06-10T12:29:12.621Z,52.12
2019-06-10T12:30:13.257Z,51.82
2019-06-10T12:31:13.524Z,52.42
2019-06-10T12:32:13.531Z,50.73
2019-06-10T12:33:19.959Z,51.10
2019-06-10T12:34:13.304Z,51.10
2019-06-10T12:35:13.738Z,51.20
2019-06-10T12:36:12.973Z,52.17
2019-06-10T12:37:15.827Z,50.58
2019-06-10T12:38:13.808Z,51.15
2019-06-10T12:39:15.675Z,51.05
2019-06-10T12:40:14.012Z,50.83
2019-06-10T12:41:13.978Z,49.74
2019-06-10T12:42:14.264Z,49.34
2019-06-10T12:43:12.764Z,50.03
2019-06-10T12:44:13.039Z,49.44
2019-06-10T12:45:12.775Z,49.14
2019-06-10T12:46:12.946Z,49.63
2019-06-10T12:47:12.159Z,49.21
2019-06-10T12:48:14.003Z,49.11
2019-06-10T12:49:13.131Z,48.72
2019-06-10T12:50:12.771Z,47.95
2019-06-10T12:51:13.542Z,48.65
2019-06-10T12:52:12.669Z,49.84
2019-06-10T12:53:12.635Z,48.94